sensor_id;sensor_type;location;lat;lon;timestamp;pressure;altitude;pressure_sealevel;temperature;humidity
21664;BME280;10993;52.510;13.456;2022-11-21T00:01:39;-26101.63;;;-0.92;100.00
21664;BME280;10993;52.510;13.456;2022-11-21T00:06:40;-26103.56;;;-0.86;100.00
21664;BME280;10993;52.510;13.456;2022-11-21T00:11:41;-26104.19;;;-0.83;100.00
21664;BME280;10993;52.510;13.456;2022-11-21T00:16:42;-26102.13;;;-0.90;100.00
21664;BME280;10993;52.510;13.456;2022-11-21T00:21:44;-26110.91;;;-0.62;100.00
21664;BME280;10993;52.510;13.456;2022-11-21T00:26:45;-26111.06;;;-0.61;100.00
21664;BME280;10993;52.510;13.456;2022-11-21T00:31:46;-26112.50;;;-0.57;100.00
21664;BME280;10993;52.510;13.456;2022-11-21T00:36:46;-26110.91;;;-0.62;100.00
21664;BME280;10993;52.510;13.456;2022-11-21T00:41:48;-26108.19;;;-0.71;100.00
21664;BME280;10993;52.510;13.456;2022-11-21T00:46:48;-26111.84;;;-0.59;100.00
21664;BME280;10993;52.510;13.456;2022-11-21T00:51:49;-26116.31;;;-0.44;100.00
21664;BME280;10993;52.510;13.456;2022-11-21T00:56:50;-26108.50;;;-0.70;100.00
21664;BME280;10993;52.510;13.456;2022-11-21T01:01:51;-26116.00;;;-0.45;100.00
21664;BME280;10993;52.510;13.456;2022-11-21T01:06:51;-26110.25;;;-0.64;100.00
21664;BME280;10993;52.510;13.456;2022-11-21T01:11:53;-26115.69;;;-0.46;100.00
21664;BME280;10993;52.510;13.456;2022-11-21T01:16:53;-26116.31;;;-0.44;100.00
21664;BME280;10993;52.510;13.456;2022-11-21T01:21:53;-26115.84;;;-0.46;100.00
21664;BME280;10993;52.510;13.456;2022-11-21T01:26:55;-26107.06;;;-0.74;100.00
21664;BME280;10993;52.510;13.456;2022-11-21T01:31:55;-26118.06;;;-0.39;100.00
21664;BME280;10993;52.510;13.456;2022-11-21T01:36:56;-26117.59;;;-0.40;100.00
21664;BME280;10993;52.510;13.456;2022-11-21T01:41:58;-26115.69;;;-0.46;100.00
21664;BME280;10993;52.510;13.456;2022-11-21T01:46:58;-26118.38;;;-0.38;100.00
21664;BME280;10993;52.510;13.456;2022-11-21T01:52:01;-26122.69;;;-0.24;100.00
21664;BME280;10993;52.510;13.456;2022-11-21T01:57:08;-26126.19;;;-0.12;100.00
21664;BME280;10993;52.510;13.456;2022-11-21T02:02:10;-26120.13;;;-0.32;100.00
21664;BME280;10993;52.510;13.456;2022-11-21T02:07:13;-26127.78;;;-0.07;100.00
21664;BME280;10993;52.510;13.456;2022-11-21T02:12:20;-26119.50;;;-0.34;100.00
21664;BME280;10993;52.510;13.456;2022-11-21T02:17:22;-26116.00;;;-0.45;100.00
21664;BME280;10993;52.510;13.456;2022-11-21T02:22:32;-26116.31;;;-0.44;100.00
21664;BME280;10993;52.510;13.456;2022-11-21T02:27:37;-26114.72;;;-0.49;100.00
21664;BME280;10993;52.510;13.456;2022-11-21T02:32:40;-26111.84;;;-0.59;100.00
21664;BME280;10993;52.510;13.456;2022-11-21T02:37:41;-26116.78;;;-0.43;100.00
21664;BME280;10993;52.510;13.456;2022-11-21T02:42:48;-26116.63;;;-0.43;100.00
21664;BME280;10993;52.510;13.456;2022-11-21T02:47:55;-26115.84;;;-0.46;100.00
21664;BME280;10993;52.510;13.456;2022-11-21T02:52:56;-26126.53;;;-0.11;100.00
21664;BME280;10993;52.510;13.456;2022-11-21T02:57:58;-26116.63;;;-0.43;100.00
21664;BME280;10993;52.510;13.456;2022-11-21T03:02:58;-26112.81;;;-0.56;100.00
21664;BME280;10993;52.510;13.456;2022-11-21T03:07:58;-26112.81;;;-0.56;100.00
21664;BME280;10993;52.510;13.456;2022-11-21T03:13:00;-26116.00;;;-0.45;100.00
21664;BME280;10993;52.510;13.456;2022-11-21T03:18:01;-26115.53;;;-0.47;100.00
21664;BME280;10993;52.510;13.456;2022-11-21T03:23:02;-26116.47;;;-0.44;100.00
21664;BME280;10993;52.510;13.456;2022-11-21T03:28:04;-26118.56;;;-0.37;100.00
21664;BME280;10993;52.510;13.456;2022-11-21T03:33:05;-26117.91;;;-0.39;100.00
21664;BME280;10993;52.510;13.456;2022-11-21T03:38:05;-26108.03;;;-0.71;100.00
21664;BME280;10993;52.510;13.456;2022-11-21T03:43:08;-26116.16;;;-0.45;100.00
21664;BME280;10993;52.510;13.456;2022-11-21T03:48:08;-26118.22;;;-0.38;100.00
21664;BME280;10993;52.510;13.456;2022-11-21T03:53:09;-26118.88;;;-0.36;100.00
21664;BME280;10993;52.510;13.456;2022-11-21T03:58:10;-26114.88;;;-0.49;100.00
21664;BME280;10993;52.510;13.456;2022-11-21T04:03:11;-26115.69;;;-0.46;100.00
21664;BME280;10993;52.510;13.456;2022-11-21T04:08:11;-26112.97;;;-0.55;100.00
21664;BME280;10993;52.510;13.456;2022-11-21T04:13:13;-26112.00;;;-0.58;100.00
21664;BME280;10993;52.510;13.456;2022-11-21T04:18:13;-26108.66;;;-0.69;100.00
21664;BME280;10993;52.510;13.456;2022-11-21T04:23:13;-26109.31;;;-0.67;100.00
21664;BME280;10993;52.510;13.456;2022-11-21T04:28:15;-26108.50;;;-0.70;100.00
21664;BME280;10993;52.510;13.456;2022-11-21T04:33:17;-26112.66;;;-0.56;100.00
21664;BME280;10993;52.510;13.456;2022-11-21T04:38:17;-26113.91;;;-0.52;100.00
21664;BME280;10993;52.510;13.456;2022-11-21T04:43:19;-26115.19;;;-0.48;100.00
21664;BME280;10993;52.510;13.456;2022-11-21T04:48:19;-26118.88;;;-0.36;100.00
21664;BME280;10993;52.510;13.456;2022-11-21T04:53:19;-26126.84;;;-0.10;100.00
21664;BME280;10993;52.510;13.456;2022-11-21T04:58:21;-26130.34;;;0.01;100.00
21664;BME280;10993;52.510;13.456;2022-11-21T05:03:21;-26137.03;;;0.23;100.00
21664;BME280;10993;52.510;13.456;2022-11-21T05:08:22;-26137.50;;;0.24;100.00
21664;BME280;10993;52.510;13.456;2022-11-21T05:13:23;-26140.53;;;0.34;100.00
21664;BME280;10993;52.510;13.456;2022-11-21T05:18:24;-26135.13;;;0.16;100.00
21664;BME280;10993;52.510;13.456;2022-11-21T05:23:24;-26148.19;;;0.59;100.00
21664;BME280;10993;52.510;13.456;2022-11-21T05:28:26;-26142.44;;;0.40;100.00
21664;BME280;10993;52.510;13.456;2022-11-21T05:33:26;-26150.88;;;0.68;100.00
21664;BME280;10993;52.510;13.456;2022-11-21T05:38:27;-26148.66;;;0.60;100.00
21664;BME280;10993;52.510;13.456;2022-11-21T05:43:28;-26147.22;;;0.56;100.00
21664;BME280;10993;52.510;13.456;2022-11-21T05:48:48;-26142.94;;;0.42;100.00
21664;BME280;10993;52.510;13.456;2022-11-21T05:53:49;-26146.91;;;0.55;100.00
21664;BME280;10993;52.510;13.456;2022-11-21T05:58:50;-26145.63;;;0.50;100.00
21664;BME280;10993;52.510;13.456;2022-11-21T06:03:51;-26154.88;;;0.80;100.00
21664;BME280;10993;52.510;13.456;2022-11-21T06:08:51;-26151.22;;;0.69;100.00
21664;BME280;10993;52.510;13.456;2022-11-21T06:13:53;-26149.13;;;0.62;100.00
21664;BME280;10993;52.510;13.456;2022-11-21T06:18:54;-26148.97;;;0.61;100.00
21664;BME280;10993;52.510;13.456;2022-11-21T06:23:56;-26147.72;;;0.57;100.00
21664;BME280;10993;52.510;13.456;2022-11-21T06:28:58;-26151.22;;;0.69;100.00
21664;BME280;10993;52.510;13.456;2022-11-21T06:33:58;-26145.94;;;0.52;100.00
21664;BME280;10993;52.510;13.456;2022-11-21T06:38:58;-26145.63;;;0.50;100.00
21664;BME280;10993;52.510;13.456;2022-11-21T06:44:00;-26151.84;;;0.71;100.00
21664;BME280;10993;52.510;13.456;2022-11-21T06:49:01;-26155.97;;;0.84;100.00
21664;BME280;10993;52.510;13.456;2022-11-21T06:54:01;-26151.84;;;0.71;100.00
21664;BME280;10993;52.510;13.456;2022-11-21T06:59:03;-26157.09;;;0.88;100.00
21664;BME280;10993;52.510;13.456;2022-11-21T07:04:03;-26158.22;;;0.91;100.00
21664;BME280;10993;52.510;13.456;2022-11-21T07:09:04;-26153.13;;;0.75;100.00
21664;BME280;10993;52.510;13.456;2022-11-21T07:14:06;-26152.81;;;0.74;100.00
21664;BME280;10993;52.510;13.456;2022-11-21T07:19:06;-26153.44;;;0.76;100.00
21664;BME280;10993;52.510;13.456;2022-11-21T07:24:07;-26147.06;;;0.55;100.00
21664;BME280;10993;52.510;13.456;2022-11-21T07:29:08;-26136.72;;;0.22;100.00
21664;BME280;10993;52.510;13.456;2022-11-21T07:34:09;-26136.25;;;0.20;100.00
21664;BME280;10993;52.510;13.456;2022-11-21T07:39:09;-26140.38;;;0.33;100.00
21664;BME280;10993;52.510;13.456;2022-11-21T07:44:11;-26141.50;;;0.37;100.00
21664;BME280;10993;52.510;13.456;2022-11-21T07:49:11;-26137.50;;;0.24;100.00
21664;BME280;10993;52.510;13.456;2022-11-21T07:54:11;-26148.19;;;0.59;100.00
21664;BME280;10993;52.510;13.456;2022-11-21T07:59:13;-26174.59;;;1.44;100.00
21664;BME280;10993;52.510;13.456;2022-11-21T08:04:13;-26180.31;;;1.63;100.00
21664;BME280;10993;52.510;13.456;2022-11-21T08:09:14;-26184.63;;;1.77;100.00
21664;BME280;10993;52.510;13.456;2022-11-21T08:14:15;-26173.97;;;1.42;100.00
21664;BME280;10993;52.510;13.456;2022-11-21T08:19:16;-26190.03;;;1.94;100.00
21664;BME280;10993;52.510;13.456;2022-11-21T08:24:17;-26195.91;;;2.13;100.00
21664;BME280;10993;52.510;13.456;2022-11-21T08:29:18;-26183.81;;;1.74;100.00
21664;BME280;10993;52.510;13.456;2022-11-21T08:34:19;-26181.28;;;1.66;100.00
21664;BME280;10993;52.510;13.456;2022-11-21T08:39:19;-26183.34;;;1.73;100.00
21664;BME280;10993;52.510;13.456;2022-11-21T08:44:21;-26190.81;;;1.97;100.00
21664;BME280;10993;52.510;13.456;2022-11-21T08:49:21;-26185.88;;;1.81;100.00
21664;BME280;10993;52.510;13.456;2022-11-21T08:54:23;-26187.94;;;1.88;100.00
21664;BME280;10993;52.510;13.456;2022-11-21T08:59:25;-26191.44;;;1.99;100.00
21664;BME280;10993;52.510;13.456;2022-11-21T09:04:25;-26192.41;;;2.02;100.00
21664;BME280;10993;52.510;13.456;2022-11-21T09:09:25;-26181.91;;;1.68;100.00
21664;BME280;10993;52.510;13.456;2022-11-21T09:14:27;-26182.38;;;1.70;100.00
21664;BME280;10993;52.510;13.456;2022-11-21T09:19:46;-26171.25;;;1.33;100.00
21664;BME280;10993;52.510;13.456;2022-11-21T09:24:46;-26173.47;;;1.41;100.00
21664;BME280;10993;52.510;13.456;2022-11-21T09:29:48;-26171.72;;;1.35;100.00
21664;BME280;10993;52.510;13.456;2022-11-21T09:34:48;-26175.56;;;1.47;100.00
21664;BME280;10993;52.510;13.456;2022-11-21T09:39:49;-26181.91;;;1.68;100.00
21664;BME280;10993;52.510;13.456;2022-11-21T09:44:58;-26175.41;;;1.47;100.00
21664;BME280;10993;52.510;13.456;2022-11-21T09:50:05;-26163.63;;;1.09;100.00
21664;BME280;10993;52.510;13.456;2022-11-21T09:55:15;-26175.72;;;1.48;100.00
21664;BME280;10993;52.510;13.456;2022-11-21T10:00:21;-26177.13;;;1.53;100.00
21664;BME280;10993;52.510;13.456;2022-11-21T10:05:28;-26182.38;;;1.70;100.00
21664;BME280;10993;52.510;13.456;2022-11-21T10:10:45;-26184.78;;;1.77;100.00
21664;BME280;10993;52.510;13.456;2022-11-21T10:15:56;-26182.06;;;1.69;100.00
21664;BME280;10993;52.510;13.456;2022-11-21T10:21:04;-26176.97;;;1.52;100.00
21664;BME280;10993;52.510;13.456;2022-11-21T10:26:14;-26183.19;;;1.72;100.00
21664;BME280;10993;52.510;13.456;2022-11-21T10:31:18;-26183.97;;;1.75;100.00
21664;BME280;10993;52.510;13.456;2022-11-21T10:36:24;-26152.00;;;0.71;100.00
21664;BME280;10993;52.510;13.456;2022-11-21T10:41:36;-26166.66;;;1.19;100.00
21664;BME280;10993;52.510;13.456;2022-11-21T10:46:39;-26167.28;;;1.21;100.00
21664;BME280;10993;52.510;13.456;2022-11-21T10:51:44;-26168.41;;;1.24;100.00
21664;BME280;10993;52.510;13.456;2022-11-21T10:56:46;-26173.31;;;1.40;100.00
21664;BME280;10993;52.510;13.456;2022-11-21T11:01:55;-26173.31;;;1.40;100.00
21664;BME280;10993;52.510;13.456;2022-11-21T11:06:56;-26166.16;;;1.17;100.00
21664;BME280;10993;52.510;13.456;2022-11-21T11:12:21;-26161.88;;;1.03;100.00
21664;BME280;10993;52.510;13.456;2022-11-21T11:17:50;-26156.28;;;0.85;100.00
21664;BME280;10993;52.510;13.456;2022-11-21T11:22:52;-26165.06;;;1.13;100.00
21664;BME280;10993;52.510;13.456;2022-11-21T11:27:52;-26178.72;;;1.58;100.00
21664;BME280;10993;52.510;13.456;2022-11-21T11:32:54;-26180.63;;;1.64;100.00
21664;BME280;10993;52.510;13.456;2022-11-21T11:37:58;-26172.38;;;1.37;100.00
21664;BME280;10993;52.510;13.456;2022-11-21T11:43:21;-26181.13;;;1.65;100.00
21664;BME280;10993;52.510;13.456;2022-11-21T11:48:46;-26166.66;;;1.19;100.00
21664;BME280;10993;52.510;13.456;2022-11-21T11:53:50;-26175.72;;;1.48;100.00
21664;BME280;10993;52.510;13.456;2022-11-21T11:58:56;-26188.28;;;1.89;100.00
21664;BME280;10993;52.510;13.456;2022-11-21T12:04:04;-26189.38;;;1.92;99.98
21664;BME280;10993;52.510;13.456;2022-11-21T12:09:15;-26182.22;;;1.69;100.00
21664;BME280;10993;52.510;13.456;2022-11-21T12:14:29;-26182.88;;;1.71;100.00
21664;BME280;10993;52.510;13.456;2022-11-21T12:19:53;-26187.16;;;1.85;100.00
21664;BME280;10993;52.510;13.456;2022-11-21T12:24:55;-26193.19;;;2.05;99.25
21664;BME280;10993;52.510;13.456;2022-11-21T12:30:08;-26189.38;;;1.92;100.00
21664;BME280;10993;52.510;13.456;2022-11-21T12:35:35;-26194.16;;;2.08;99.96
21664;BME280;10993;52.510;13.456;2022-11-21T12:40:47;-26182.22;;;1.69;100.00
21664;BME280;10993;52.510;13.456;2022-11-21T12:45:55;-26193.19;;;2.05;100.00
21664;BME280;10993;52.510;13.456;2022-11-21T12:51:11;-26190.03;;;1.94;98.37
21664;BME280;10993;52.510;13.456;2022-11-21T12:56:38;-26185.88;;;1.81;99.11
21664;BME280;10993;52.510;13.456;2022-11-21T13:01:48;-26183.50;;;1.73;97.58
21664;BME280;10993;52.510;13.456;2022-11-21T13:06:57;-26185.09;;;1.78;100.00
21664;BME280;10993;52.510;13.456;2022-11-21T13:12:02;-26184.78;;;1.77;96.78
21664;BME280;10993;52.510;13.456;2022-11-21T13:17:26;-26183.19;;;1.72;99.69
21664;BME280;10993;52.510;13.456;2022-11-21T13:22:49;-26184.13;;;1.75;99.21
21664;BME280;10993;52.510;13.456;2022-11-21T13:27:51;-26170.78;;;1.32;99.96
21664;BME280;10993;52.510;13.456;2022-11-21T13:32:52;-26156.28;;;0.85;100.00
21664;BME280;10993;52.510;13.456;2022-11-21T13:38:02;-26156.78;;;0.87;100.00
21664;BME280;10993;52.510;13.456;2022-11-21T13:43:19;-26146.13;;;0.52;100.00
21664;BME280;10993;52.510;13.456;2022-11-21T13:54:23;-26162.34;;;1.05;100.00
21664;BME280;10993;52.510;13.456;2022-11-21T13:59:39;-26162.03;;;1.04;100.00
21664;BME280;10993;52.510;13.456;2022-11-21T14:05:01;-26154.56;;;0.79;100.00
21664;BME280;10993;52.510;13.456;2022-11-21T14:10:17;-26155.34;;;0.82;100.00
21664;BME280;10993;52.510;13.456;2022-11-21T14:15:23;-26150.56;;;0.66;100.00
21664;BME280;10993;52.510;13.456;2022-11-21T14:20:30;-26147.22;;;0.56;100.00
21664;BME280;10993;52.510;13.456;2022-11-21T14:25:40;-26136.06;;;0.20;100.00
21664;BME280;10993;52.510;13.456;2022-11-21T14:30:43;-26128.28;;;-0.06;100.00
21664;BME280;10993;52.510;13.456;2022-11-21T14:35:46;-26132.88;;;0.09;100.00
21664;BME280;10993;52.510;13.456;2022-11-21T14:40:48;-26132.88;;;0.09;100.00
21664;BME280;10993;52.510;13.456;2022-11-21T14:45:49;-26127.63;;;-0.08;100.00
21664;BME280;10993;52.510;13.456;2022-11-21T14:50:49;-26118.22;;;-0.38;100.00
21664;BME280;10993;52.510;13.456;2022-11-21T14:55:51;-26121.25;;;-0.28;100.00
21664;BME280;10993;52.510;13.456;2022-11-21T15:01:00;-26116.00;;;-0.45;100.00
21664;BME280;10993;52.510;13.456;2022-11-21T15:06:03;-26112.00;;;-0.58;100.00
21664;BME280;10993;52.510;13.456;2022-11-21T15:11:07;-26121.09;;;-0.29;100.00
21664;BME280;10993;52.510;13.456;2022-11-21T15:16:08;-26108.50;;;-0.70;100.00
21664;BME280;10993;52.510;13.456;2022-11-21T15:21:13;-26118.06;;;-0.39;100.00
21664;BME280;10993;52.510;13.456;2022-11-21T15:26:27;-26110.09;;;-0.64;100.00
21664;BME280;10993;52.510;13.456;2022-11-21T15:31:29;-26101.00;;;-0.94;100.00
21664;BME280;10993;52.510;13.456;2022-11-21T15:36:31;-26106.75;;;-0.75;100.00
21664;BME280;10993;52.510;13.456;2022-11-21T15:41:33;-26110.91;;;-0.62;100.00
21664;BME280;10993;52.510;13.456;2022-11-21T15:46:35;-26110.41;;;-0.63;100.00
21664;BME280;10993;52.510;13.456;2022-11-21T15:51:43;-26111.53;;;-0.60;100.00
21664;BME280;10993;52.510;13.456;2022-11-21T15:56:45;-26107.06;;;-0.74;100.00
21664;BME280;10993;52.510;13.456;2022-11-21T16:01:46;-26114.09;;;-0.52;100.00
21664;BME280;10993;52.510;13.456;2022-11-21T16:06:46;-26116.16;;;-0.45;100.00
21664;BME280;10993;52.510;13.456;2022-11-21T16:11:48;-26111.84;;;-0.59;100.00
21664;BME280;10993;52.510;13.456;2022-11-21T16:16:48;-26115.03;;;-0.48;100.00
21664;BME280;10993;52.510;13.456;2022-11-21T16:21:48;-26111.84;;;-0.59;100.00
21664;BME280;10993;52.510;13.456;2022-11-21T16:26:50;-26117.44;;;-0.41;100.00
21664;BME280;10993;52.510;13.456;2022-11-21T16:31:53;-26114.56;;;-0.50;100.00
21664;BME280;10993;52.510;13.456;2022-11-21T16:36:55;-26115.38;;;-0.47;100.00
21664;BME280;10993;52.510;13.456;2022-11-21T16:41:56;-26112.66;;;-0.56;100.00
21664;BME280;10993;52.510;13.456;2022-11-21T16:46:57;-26108.66;;;-0.69;100.00
21664;BME280;10993;52.510;13.456;2022-11-21T16:51:57;-26108.97;;;-0.68;100.00
21664;BME280;10993;52.510;13.456;2022-11-21T16:56:59;-26113.75;;;-0.53;100.00
21664;BME280;10993;52.510;13.456;2022-11-21T17:01:59;-26106.28;;;-0.77;100.00
21664;BME280;10993;52.510;13.456;2022-11-21T17:07:00;-26107.53;;;-0.73;100.00
21664;BME280;10993;52.510;13.456;2022-11-21T17:12:01;-26101.81;;;-0.91;100.00
21664;BME280;10993;52.510;13.456;2022-11-21T17:17:02;-26100.06;;;-0.97;100.00
21664;BME280;10993;52.510;13.456;2022-11-21T17:22:02;-26084.41;;;-1.47;100.00
21664;BME280;10993;52.510;13.456;2022-11-21T17:27:04;-26086.31;;;-1.41;100.00
21664;BME280;10993;52.510;13.456;2022-11-21T17:32:04;-26091.44;;;-1.25;100.00
21664;BME280;10993;52.510;13.456;2022-11-21T17:37:05;-26084.25;;;-1.48;100.00
21664;BME280;10993;52.510;13.456;2022-11-21T17:42:06;-26090.47;;;-1.28;100.00
21664;BME280;10993;52.510;13.456;2022-11-21T17:47:08;-26085.69;;;-1.43;100.00
21664;BME280;10993;52.510;13.456;2022-11-21T17:52:09;-26079.28;;;-1.64;100.00
21664;BME280;10993;52.510;13.456;2022-11-21T17:57:10;-26081.53;;;-1.57;100.00
21664;BME280;10993;52.510;13.456;2022-11-21T18:02:11;-26087.91;;;-1.36;100.00
21664;BME280;10993;52.510;13.456;2022-11-21T18:07:11;-26089.03;;;-1.32;100.00
21664;BME280;10993;52.510;13.456;2022-11-21T18:12:13;-26087.28;;;-1.38;100.00
21664;BME280;10993;52.510;13.456;2022-11-21T18:17:14;-26085.03;;;-1.45;100.00
21664;BME280;10993;52.510;13.456;2022-11-21T18:22:14;-26085.38;;;-1.44;100.00
21664;BME280;10993;52.510;13.456;2022-11-21T18:27:16;-26086.66;;;-1.40;100.00
21664;BME280;10993;52.510;13.456;2022-11-21T18:32:16;-26083.44;;;-1.51;100.00
21664;BME280;10993;52.510;13.456;2022-11-21T18:37:16;-26080.41;;;-1.60;100.00
21664;BME280;10993;52.510;13.456;2022-11-21T18:42:18;-26084.09;;;-1.48;100.00
21664;BME280;10993;52.510;13.456;2022-11-21T18:47:18;-26086.31;;;-1.41;100.00
21664;BME280;10993;52.510;13.456;2022-11-21T18:52:19;-26077.88;;;-1.69;100.00
21664;BME280;10993;52.510;13.456;2022-11-21T18:57:20;-26086.66;;;-1.40;100.00
21664;BME280;10993;52.510;13.456;2022-11-21T19:02:21;-26091.13;;;-1.26;100.00
21664;BME280;10993;52.510;13.456;2022-11-21T19:07:21;-26083.78;;;-1.49;100.00
21664;BME280;10993;52.510;13.456;2022-11-21T19:12:23;-26084.25;;;-1.48;100.00
21664;BME280;10993;52.510;13.456;2022-11-21T19:17:23;-26087.44;;;-1.38;100.00
21664;BME280;10993;52.510;13.456;2022-11-21T19:22:23;-26088.09;;;-1.36;100.00
21664;BME280;10993;52.510;13.456;2022-11-21T19:27:26;-26090.47;;;-1.28;100.00
21664;BME280;10993;52.510;13.456;2022-11-21T19:32:27;-26092.88;;;-1.20;100.00
21664;BME280;10993;52.510;13.456;2022-11-21T19:37:28;-26094.63;;;-1.14;100.00
21664;BME280;10993;52.510;13.456;2022-11-21T19:42:32;-26092.88;;;-1.20;100.00
21664;BME280;10993;52.510;13.456;2022-11-21T19:47:32;-26094.16;;;-1.16;100.00
21664;BME280;10993;52.510;13.456;2022-11-21T19:52:33;-26096.38;;;-1.09;100.00
21664;BME280;10993;52.510;13.456;2022-11-21T19:57:36;-26088.88;;;-1.33;100.00
21664;BME280;10993;52.510;13.456;2022-11-21T20:02:36;-26087.13;;;-1.39;100.00
21664;BME280;10993;52.510;13.456;2022-11-21T20:07:36;-26084.41;;;-1.47;100.00
21664;BME280;10993;52.510;13.456;2022-11-21T20:12:38;-26083.78;;;-1.49;100.00
21664;BME280;10993;52.510;13.456;2022-11-21T20:17:39;-26083.78;;;-1.49;100.00
21664;BME280;10993;52.510;13.456;2022-11-21T20:22:39;-26083.28;;;-1.51;100.00
21664;BME280;10993;52.510;13.456;2022-11-21T20:27:41;-26083.94;;;-1.49;100.00
21664;BME280;10993;52.510;13.456;2022-11-21T20:32:41;-26082.34;;;-1.54;100.00
21664;BME280;10993;52.510;13.456;2022-11-21T20:37:41;-26080.09;;;-1.61;100.00
21664;BME280;10993;52.510;13.456;2022-11-21T20:42:43;-26080.91;;;-1.59;100.00
21664;BME280;10993;52.510;13.456;2022-11-21T20:47:43;-26081.53;;;-1.57;100.00
21664;BME280;10993;52.510;13.456;2022-11-21T20:52:44;-26082.16;;;-1.55;100.00
21664;BME280;10993;52.510;13.456;2022-11-21T20:57:45;-26082.00;;;-1.55;100.00
21664;BME280;10993;52.510;13.456;2022-11-21T21:02:46;-26069.56;;;-1.95;100.00
21664;BME280;10993;52.510;13.456;2022-11-21T21:07:46;-26079.94;;;-1.62;100.00
21664;BME280;10993;52.510;13.456;2022-11-21T21:12:48;-26082.66;;;-1.53;100.00
21664;BME280;10993;52.510;13.456;2022-11-21T21:17:48;-26082.81;;;-1.53;100.00
21664;BME280;10993;52.510;13.456;2022-11-21T21:22:48;-26088.09;;;-1.36;100.00
21664;BME280;10993;52.510;13.456;2022-11-21T21:27:50;-26088.88;;;-1.33;100.00
21664;BME280;10993;52.510;13.456;2022-11-21T21:32:50;-26094.31;;;-1.15;100.00
21664;BME280;10993;52.510;13.456;2022-11-21T21:37:51;-26095.25;;;-1.12;100.00
21664;BME280;10993;52.510;13.456;2022-11-21T21:42:52;-26097.50;;;-1.05;100.00
21664;BME280;10993;52.510;13.456;2022-11-21T21:47:53;-26100.38;;;-0.96;100.00
21664;BME280;10993;52.510;13.456;2022-11-21T21:52:53;-26100.53;;;-0.95;100.00
21664;BME280;10993;52.510;13.456;2022-11-21T21:57:55;-26103.72;;;-0.85;100.00
21664;BME280;10993;52.510;13.456;2022-11-21T22:02:56;-26097.97;;;-1.04;100.00
21664;BME280;10993;52.510;13.456;2022-11-21T22:07:57;-26094.63;;;-1.14;100.00
21664;BME280;10993;52.510;13.456;2022-11-21T22:12:58;-26090.97;;;-1.26;100.00
21664;BME280;10993;52.510;13.456;2022-11-21T22:17:59;-26085.38;;;-1.44;100.00
21664;BME280;10993;52.510;13.456;2022-11-21T22:22:59;-26089.84;;;-1.30;100.00
21664;BME280;10993;52.510;13.456;2022-11-21T22:28:01;-26087.13;;;-1.39;100.00
21664;BME280;10993;52.510;13.456;2022-11-21T22:33:01;-26073.38;;;-1.83;100.00
21664;BME280;10993;52.510;13.456;2022-11-21T22:38:02;-26076.25;;;-1.74;100.00
21664;BME280;10993;52.510;13.456;2022-11-21T22:43:03;-26065.25;;;-2.09;100.00
21664;BME280;10993;52.510;13.456;2022-11-21T22:48:04;-26066.84;;;-2.04;100.00
21664;BME280;10993;52.510;13.456;2022-11-21T22:53:05;-26066.53;;;-2.05;100.00
21664;BME280;10993;52.510;13.456;2022-11-21T22:58:06;-26066.69;;;-2.05;100.00
21664;BME280;10993;52.510;13.456;2022-11-21T23:03:07;-26064.28;;;-2.12;100.00
21664;BME280;10993;52.510;13.456;2022-11-21T23:08:07;-26061.72;;;-2.21;100.00
21664;BME280;10993;52.510;13.456;2022-11-21T23:13:09;-26064.59;;;-2.11;100.00
21664;BME280;10993;52.510;13.456;2022-11-21T23:18:09;-26062.22;;;-2.19;100.00
21664;BME280;10993;52.510;13.456;2022-11-21T23:23:09;-26063.00;;;-2.16;100.00
21664;BME280;10993;52.510;13.456;2022-11-21T23:28:11;-26060.94;;;-2.23;100.00
21664;BME280;10993;52.510;13.456;2022-11-21T23:33:11;-26062.69;;;-2.17;100.00
21664;BME280;10993;52.510;13.456;2022-11-21T23:38:13;-26061.72;;;-2.21;100.00
21664;BME280;10993;52.510;13.456;2022-11-21T23:43:16;-26062.03;;;-2.20;100.00
21664;BME280;10993;52.510;13.456;2022-11-21T23:48:17;-26060.75;;;-2.24;100.00
21664;BME280;10993;52.510;13.456;2022-11-21T23:53:18;-26053.56;;;-2.47;100.00
21664;BME280;10993;52.510;13.456;2022-11-21T23:58:20;-26056.28;;;-2.38;100.00
